createdAt,value
2018-06-27T00:00:14.416Z,8.63
2018-06-27T00:02:44.567Z,7.87
2018-06-27T00:05:15.106Z,7.90
2018-06-27T00:07:43.764Z,8.43
2018-06-27T00:10:13.096Z,7.93
2018-06-27T00:12:42.107Z,8.50
2018-06-27T00:15:13.219Z,9.10
2018-06-27T00:17:42.084Z,9.03
2018-06-27T00:20:13.370Z,9.50
2018-06-27T00:22:41.815Z,9.73
2018-06-27T00:25:11.990Z,9.23
2018-06-27T00:27:52.799Z,9.90
2018-06-27T00:30:34.789Z,10.30
2018-06-27T00:33:15.849Z,10.60
2018-06-27T00:35:55.429Z,10.47
2018-06-27T00:38:34.330Z,11.60
2018-06-27T00:41:14.761Z,10.37
2018-06-27T00:43:53.240Z,11.00
2018-06-27T00:46:33.633Z,10.70
2018-06-27T00:49:14.177Z,11.20
2018-06-27T00:51:54.452Z,11.17
2018-06-27T00:54:35.745Z,10.40
2018-06-27T00:57:16.673Z,11.93
2018-06-27T00:59:56.961Z,11.50
2018-06-27T01:02:37.822Z,11.70
2018-06-27T01:05:19.263Z,10.87
2018-06-27T01:08:00.078Z,11.30
2018-06-27T01:39:41.404Z,11.20
2018-06-27T01:42:11.704Z,11.63
2018-06-27T01:44:39.973Z,12.40
2018-06-27T01:47:09.078Z,12.10
2018-06-27T01:49:38.451Z,13.43
2018-06-27T01:52:07.537Z,13.60
2018-06-27T01:54:36.074Z,12.87
2018-06-27T01:57:06.185Z,12.83
2018-06-27T01:59:34.319Z,13.00
2018-06-27T02:02:04.722Z,12.60
2018-06-27T02:04:33.714Z,11.93
2018-06-27T02:07:02.047Z,12.57
2018-06-27T02:09:30.618Z,12.90
2018-06-27T02:11:58.920Z,12.50
2018-06-27T02:14:27.131Z,11.43
2018-06-27T02:16:55.368Z,11.90
2018-06-27T02:19:23.825Z,12.40
2018-06-27T02:21:51.935Z,13.07
2018-06-27T02:24:19.936Z,13.63
2018-06-27T02:26:49.291Z,12.70
2018-06-27T02:29:18.353Z,13.87
2018-06-27T02:31:47.334Z,14.33
2018-06-27T02:34:15.820Z,12.40
2018-06-27T02:36:46.020Z,13.30
2018-06-27T02:39:14.344Z,12.60
2018-06-27T02:41:42.421Z,13.33
2018-06-27T02:44:11.537Z,12.30
2018-06-27T02:46:40.673Z,13.63
2018-06-27T02:49:08.842Z,13.43
2018-06-27T02:51:37.397Z,13.30
2018-06-27T02:54:05.520Z,12.37
2018-06-27T02:56:34.676Z,13.17
2018-06-27T02:59:04.045Z,13.23
2018-06-27T03:01:33.333Z,14.43
2018-06-27T03:04:02.491Z,12.17
2018-06-27T03:06:31.693Z,13.97
2018-06-27T03:08:59.993Z,14.00
2018-06-27T03:11:28.972Z,12.07
2018-06-27T03:13:57.018Z,13.20
2018-06-27T03:16:26.301Z,12.60
2018-06-27T03:18:56.320Z,13.33
2018-06-27T03:21:24.990Z,12.03
2018-06-27T03:23:54.134Z,14.00
2018-06-27T03:26:22.862Z,13.60
2018-06-27T03:28:51.041Z,14.33
2018-06-27T03:31:20.150Z,14.33
2018-06-27T03:33:49.233Z,14.57
2018-06-27T03:36:19.838Z,13.03
2018-06-27T03:51:41.676Z,14.37
2018-06-27T03:54:10.257Z,13.70
2018-06-27T03:56:40.436Z,14.90
2018-06-27T03:59:09.266Z,14.13
2018-06-27T04:01:38.397Z,16.00
2018-06-27T04:04:07.469Z,14.20
2018-06-27T04:06:35.923Z,16.40
2018-06-27T04:09:06.545Z,15.53
2018-06-27T04:11:35.118Z,15.23
2018-06-27T04:14:05.510Z,17.20
2018-06-27T04:16:34.074Z,15.63
2018-06-27T04:31:57.712Z,17.20
2018-06-27T04:34:25.786Z,17.23
2018-06-27T04:36:55.575Z,14.97
2018-06-27T04:39:24.234Z,16.53
2018-06-27T04:41:52.742Z,16.30
2018-06-27T04:44:20.801Z,15.87
2018-06-27T04:46:50.416Z,14.33
2018-06-27T04:49:20.541Z,16.87
2018-06-27T04:51:49.727Z,15.97
2018-06-27T04:54:19.533Z,16.93
2018-06-27T04:56:47.737Z,17.50
2018-06-27T04:59:15.793Z,17.07
2018-06-27T05:01:44.383Z,18.73
2018-06-27T05:04:14.720Z,17.10
2018-06-27T05:06:43.208Z,15.40
2018-06-27T05:09:13.540Z,17.17
2018-06-27T05:11:42.322Z,15.93
2018-06-27T05:14:11.970Z,17.67
2018-06-27T05:16:42.095Z,15.77
2018-06-27T05:19:16.568Z,16.27
2018-06-27T05:21:44.706Z,17.20
2018-06-27T05:24:14.862Z,15.73
2018-06-27T05:26:44.756Z,16.43
2018-06-27T05:29:15.314Z,16.17
2018-06-27T05:41:24.643Z,15.10
2018-06-27T05:43:55.306Z,16.40
2018-06-27T05:46:25.311Z,16.97
2018-06-27T05:48:55.581Z,16.77
2018-06-27T05:51:23.597Z,17.80
2018-06-27T05:53:53.035Z,17.20
2018-06-27T05:56:23.484Z,18.17
2018-06-27T05:58:51.587Z,17.80
2018-06-27T06:01:20.568Z,17.53
2018-06-27T06:03:49.715Z,17.47
2018-06-27T06:15:59.440Z,15.47
2018-06-27T06:18:30.853Z,16.57
2018-06-27T06:21:00.727Z,17.17
2018-06-27T06:23:30.940Z,16.30
2018-06-27T06:26:00.081Z,17.10
2018-06-27T06:28:29.909Z,14.57
2018-06-27T06:30:58.400Z,14.13
2018-06-27T06:33:28.944Z,13.37
2018-06-27T06:35:58.689Z,12.43
2018-06-27T06:38:30.547Z,12.00
2018-06-27T06:41:00.062Z,12.90
2018-06-27T06:43:29.903Z,11.47
2018-06-27T06:55:40.002Z,10.03
2018-06-27T06:58:08.221Z,10.10
2018-06-27T07:00:46.214Z,10.10
2018-06-27T07:03:15.804Z,11.00
2018-06-27T07:05:45.503Z,14.80
2018-06-27T07:08:14.889Z,12.53
2018-06-27T07:10:43.157Z,11.30
2018-06-27T07:13:13.690Z,11.30
2018-06-27T07:15:42.208Z,11.57
2018-06-27T07:18:12.454Z,11.47
2018-06-27T07:20:41.961Z,10.23
2018-06-27T07:23:10.367Z,10.23
2018-06-27T07:25:41.550Z,12.20
2018-06-27T07:28:11.711Z,11.40
2018-06-27T07:30:40.893Z,11.80
2018-06-27T07:33:09.317Z,10.90
2018-06-27T07:35:37.565Z,12.47
2018-06-27T07:38:08.550Z,12.07
2018-06-27T07:40:38.024Z,12.17
2018-06-27T07:43:06.377Z,9.90
2018-06-27T07:45:34.376Z,10.87
2018-06-27T07:48:03.417Z,10.07
2018-06-27T07:50:34.110Z,12.77
2018-06-27T07:53:02.769Z,11.40
2018-06-27T07:55:31.221Z,11.07
2018-06-27T08:01:30.929Z,9.70
2018-06-27T08:04:00.405Z,9.23
2018-06-27T08:06:42.305Z,9.63
2018-06-27T08:09:11.161Z,11.67
2018-06-27T08:11:40.490Z,11.30
2018-06-27T08:14:11.038Z,11.60
2018-06-27T08:16:40.891Z,10.80
2018-06-27T08:19:09.644Z,11.17
2018-06-27T08:21:38.474Z,11.03
2018-06-27T08:24:10.238Z,11.33
2018-06-27T08:26:39.016Z,13.20
2018-06-27T08:29:08.325Z,10.80
2018-06-27T08:31:37.741Z,10.60
2018-06-27T08:34:15.053Z,9.80
2018-06-27T08:36:45.265Z,9.30
2018-06-27T08:39:14.437Z,9.10
2018-06-27T08:41:43.577Z,9.07
2018-06-27T08:44:13.774Z,9.40
2018-06-27T08:46:43.563Z,8.80
2018-06-27T08:49:12.456Z,9.10
2018-06-27T08:51:41.268Z,8.80
2018-06-27T08:54:11.250Z,9.10
2018-06-27T08:56:41.594Z,8.90
2018-06-27T08:59:11.691Z,9.63
2018-06-27T09:01:40.552Z,8.40
2018-06-27T09:04:10.124Z,7.77
2018-06-27T09:06:39.637Z,9.17
2018-06-27T09:09:09.337Z,9.60
2018-06-27T09:11:38.091Z,8.90
2018-06-27T09:14:09.475Z,8.17
2018-06-27T09:16:40.289Z,10.37
2018-06-27T09:19:11.364Z,8.67
2018-06-27T09:21:45.047Z,9.43
2018-06-27T09:24:17.570Z,9.70
2018-06-27T09:26:49.736Z,10.00
2018-06-27T09:29:22.154Z,10.07
2018-06-27T09:53:35.334Z,9.10
2018-06-27T09:56:06.454Z,9.47
2018-06-27T09:58:37.942Z,9.33
2018-06-27T10:01:10.047Z,8.93
2018-06-27T10:03:40.759Z,8.77
2018-06-27T10:06:12.679Z,8.33
2018-06-27T10:08:44.244Z,9.30
2018-06-27T10:11:14.869Z,8.10
2018-06-27T10:13:43.944Z,7.03
2018-06-27T10:16:15.730Z,7.30
2018-06-27T10:18:47.375Z,7.73
2018-06-27T10:21:17.445Z,7.60
2018-06-27T10:23:47.076Z,7.77
2018-06-27T10:26:17.172Z,8.27
2018-06-27T10:28:47.791Z,8.37
2018-06-27T10:31:18.441Z,7.27
2018-06-27T10:33:49.065Z,7.07
2018-06-27T10:36:19.334Z,5.73
2018-06-27T10:38:48.701Z,4.83
2018-06-27T10:41:19.405Z,6.43
2018-06-27T10:43:49.297Z,5.47
2018-06-27T10:46:18.936Z,5.93
2018-06-27T10:48:49.200Z,6.07
2018-06-27T10:51:18.785Z,6.57
2018-06-27T10:53:48.325Z,6.70
2018-06-27T10:56:18.970Z,5.47
2018-06-27T10:58:48.706Z,4.73
2018-06-27T11:01:18.533Z,5.60
2018-06-27T11:03:48.746Z,5.00
2018-06-27T11:06:18.778Z,6.00
2018-06-27T11:08:49.553Z,6.87
2018-06-27T11:11:19.576Z,5.03
2018-06-27T11:13:49.731Z,5.10
2018-06-27T11:16:21.038Z,5.30
2018-06-27T11:18:52.849Z,4.80
2018-06-27T11:21:24.237Z,4.20
2018-06-27T11:23:54.614Z,4.70
2018-06-27T11:26:25.914Z,3.90
2018-06-27T11:28:56.268Z,3.83
2018-06-27T11:31:26.407Z,4.00
2018-06-27T11:33:58.693Z,3.37
2018-06-27T11:36:29.617Z,4.00
2018-06-27T11:39:00.010Z,3.73
2018-06-27T11:47:25.429Z,3.40
2018-06-27T11:49:56.147Z,3.10
2018-06-27T11:52:27.311Z,4.27
2018-06-27T11:55:02.357Z,3.07
2018-06-27T11:57:32.155Z,2.47
2018-06-27T12:00:02.405Z,3.80
2018-06-27T12:02:34.082Z,3.10
2018-06-27T12:05:04.621Z,2.90
2018-06-27T12:07:35.261Z,2.80
2018-06-27T12:10:06.601Z,2.53
2018-06-27T12:12:37.797Z,2.87
2018-06-27T12:15:08.285Z,2.50
2018-06-27T12:17:39.073Z,2.13
2018-06-27T12:20:08.635Z,1.80
2018-06-27T12:22:39.407Z,2.00
2018-06-27T12:25:11.083Z,1.73
2018-06-27T12:27:41.289Z,2.03
2018-06-27T12:30:20.087Z,2.10
2018-06-27T12:32:50.752Z,1.97
2018-06-27T12:35:22.692Z,3.17
2018-06-27T12:37:53.663Z,2.90
2018-06-27T12:40:24.870Z,4.80
2018-06-27T12:42:56.701Z,4.47
2018-06-27T12:45:28.616Z,2.80
2018-06-27T12:47:59.048Z,2.67
2018-06-27T12:50:30.476Z,7.60
2018-06-27T12:53:02.934Z,4.90
2018-06-27T12:55:34.037Z,5.57
2018-06-27T12:58:05.868Z,6.10
2018-06-27T13:00:39.914Z,3.30
2018-06-27T13:03:12.413Z,4.60
2018-06-27T13:08:38.567Z,4.30
2018-06-27T13:11:09.898Z,3.30
2018-06-27T13:13:41.311Z,5.17
2018-06-27T13:16:12.946Z,3.40
2018-06-27T13:18:44.173Z,2.77
2018-06-27T13:21:15.337Z,1.90
2018-06-27T13:23:45.239Z,3.37
2018-06-27T13:26:15.690Z,2.33
2018-06-27T13:28:46.771Z,2.00
2018-06-27T13:31:16.663Z,1.67
2018-06-27T13:33:47.642Z,1.90
2018-06-27T13:36:17.673Z,1.97
2018-06-27T13:38:48.590Z,2.10
2018-06-27T13:41:19.310Z,2.17
2018-06-27T13:43:49.996Z,2.10
2018-06-27T13:46:20.179Z,2.60
2018-06-27T13:48:51.922Z,1.90
2018-06-27T13:51:27.553Z,1.60
2018-06-27T13:53:56.963Z,1.90
2018-06-27T13:56:28.087Z,2.33
2018-06-27T13:58:58.302Z,1.70
2018-06-27T14:01:29.241Z,1.80
2018-06-27T14:03:59.597Z,2.10
2018-06-27T14:06:31.800Z,1.70
2018-06-27T14:09:02.714Z,2.00
2018-06-27T14:11:32.305Z,1.70
2018-06-27T14:14:03.519Z,2.10
2018-06-27T14:16:34.183Z,1.70
2018-06-27T14:19:05.016Z,1.67
2018-06-27T14:21:34.995Z,2.00
2018-06-27T14:24:03.898Z,1.80
2018-06-27T14:26:34.567Z,1.93
2018-06-27T14:29:05.294Z,2.00
2018-06-27T14:31:34.960Z,2.33
2018-06-27T14:34:05.568Z,2.10
2018-06-27T14:36:35.637Z,2.80
2018-06-27T14:39:06.828Z,1.80
2018-06-27T14:41:35.991Z,2.17
2018-06-27T14:44:06.566Z,1.77
2018-06-27T14:46:37.583Z,2.10
2018-06-27T14:49:08.535Z,2.37
2018-06-27T14:51:38.039Z,5.20
2018-06-27T14:54:08.617Z,2.73
2018-06-27T14:56:39.231Z,3.10
2018-06-27T14:59:09.826Z,3.00
2018-06-27T15:01:40.823Z,2.93
2018-06-27T15:04:10.145Z,3.13
2018-06-27T15:06:39.799Z,3.27
2018-06-27T15:09:10.169Z,3.40
2018-06-27T15:11:39.899Z,2.83
2018-06-27T15:14:10.036Z,3.53
2018-06-27T15:16:40.815Z,3.67
2018-06-27T15:19:11.796Z,4.10
2018-06-27T15:21:42.564Z,4.57
2018-06-27T15:24:13.707Z,5.83
2018-06-27T15:26:44.957Z,4.70
2018-06-27T15:29:14.489Z,4.53
2018-06-27T15:31:44.145Z,4.80
2018-06-27T15:34:14.934Z,4.80
2018-06-27T15:36:45.175Z,5.93
2018-06-27T15:39:16.129Z,4.90
2018-06-27T15:41:46.421Z,4.93
2018-06-27T15:44:18.655Z,4.20
2018-06-27T15:46:49.163Z,4.13
2018-06-27T15:49:19.338Z,4.77
2018-06-27T15:51:49.032Z,3.90
2018-06-27T15:54:19.765Z,2.93
2018-06-27T15:56:52.266Z,3.50
2018-06-27T15:59:22.733Z,2.60
2018-06-27T16:01:51.880Z,3.00
2018-06-27T16:04:22.264Z,3.17
2018-06-27T16:06:53.767Z,2.70
2018-06-27T16:09:24.154Z,3.40
2018-06-27T16:11:55.922Z,2.70
2018-06-27T16:14:26.725Z,3.10
2018-06-27T16:16:57.727Z,2.87
2018-06-27T16:19:29.227Z,2.93
2018-06-27T16:21:59.219Z,2.80
2018-06-27T16:24:30.946Z,2.73
2018-06-27T16:27:02.488Z,2.33
2018-06-27T16:29:32.679Z,3.20
2018-06-27T16:40:52.335Z,3.23
2018-06-27T16:43:24.274Z,3.30
2018-06-27T16:45:54.964Z,2.93
2018-06-27T16:48:25.995Z,1.93
2018-06-27T16:50:56.327Z,1.30
2018-06-27T16:53:27.438Z,1.23
2018-06-27T16:55:57.418Z,1.60
2018-06-27T16:58:28.849Z,1.77
2018-06-27T17:00:59.750Z,2.07
2018-06-27T17:03:29.525Z,1.50
2018-06-27T17:06:00.187Z,1.50
2018-06-27T17:08:31.023Z,1.40
2018-06-27T17:11:00.751Z,1.53
2018-06-27T17:13:31.059Z,1.83
2018-06-27T17:16:00.732Z,1.10
2018-06-27T17:18:30.739Z,1.50
2018-06-27T17:21:01.280Z,1.40
2018-06-27T17:23:31.633Z,1.57
2018-06-27T17:26:01.842Z,1.00
2018-06-27T17:28:32.168Z,1.60
2018-06-27T17:31:02.172Z,1.37
2018-06-27T17:33:33.359Z,1.47
2018-06-27T17:36:02.796Z,2.00
2018-06-27T17:38:33.291Z,2.13
2018-06-27T17:41:03.867Z,1.90
2018-06-27T17:43:34.000Z,1.30
2018-06-27T17:46:04.861Z,4.97
2018-06-27T17:48:35.209Z,2.50
2018-06-27T17:51:06.093Z,1.50
2018-06-27T17:53:35.315Z,1.70
2018-06-27T17:56:05.666Z,2.20
2018-06-27T17:58:35.674Z,1.93
2018-06-27T18:01:05.556Z,1.90
2018-06-27T18:03:36.466Z,2.27
2018-06-27T18:06:08.123Z,1.73
2018-06-27T18:08:38.696Z,1.50
2018-06-27T18:11:07.795Z,1.70
2018-06-27T18:13:37.170Z,2.10
2018-06-27T18:16:08.326Z,1.67
2018-06-27T18:18:38.542Z,1.70
2018-06-27T18:24:16.471Z,3.10
2018-06-27T18:26:46.964Z,2.50
2018-06-27T18:29:17.135Z,1.60
2018-06-27T18:31:47.425Z,2.00
2018-06-27T18:34:18.018Z,2.00
2018-06-27T18:36:48.664Z,1.57
2018-06-27T18:39:18.004Z,2.00
2018-06-27T18:41:47.681Z,1.80
2018-06-27T18:44:18.017Z,1.70
2018-06-27T18:46:47.790Z,1.80
2018-06-27T18:49:17.695Z,1.80
2018-06-27T18:51:47.697Z,1.50
2018-06-27T19:03:57.877Z,0.97
2018-06-27T19:06:28.309Z,1.67
2018-06-27T19:08:58.357Z,1.70
2018-06-27T19:11:28.573Z,2.00
2018-06-27T19:13:59.920Z,1.87
2018-06-27T19:16:30.333Z,2.07
2018-06-27T19:18:59.843Z,2.10
2018-06-27T19:21:30.215Z,1.97
2018-06-27T19:23:59.737Z,1.90
2018-06-27T19:26:30.719Z,1.90
2018-06-27T19:29:00.698Z,1.73
2018-06-27T19:31:32.190Z,1.70
2018-06-27T19:34:01.728Z,2.30
2018-06-27T19:36:30.870Z,1.80
2018-06-27T19:39:00.032Z,1.80
2018-06-27T19:41:29.342Z,2.13
2018-06-27T19:43:58.779Z,1.93
2018-06-27T19:46:28.293Z,2.03
2018-06-27T19:48:59.839Z,1.43
2018-06-27T19:51:31.001Z,1.80
2018-06-27T19:54:00.054Z,1.80
2018-06-27T19:56:30.738Z,1.87
2018-06-27T19:59:00.755Z,1.40
2018-06-27T20:01:31.349Z,1.63
2018-06-27T20:04:01.589Z,1.77
2018-06-27T20:06:32.720Z,2.00
2018-06-27T20:09:05.239Z,2.20
2018-06-27T20:11:35.891Z,1.60
2018-06-27T20:19:59.558Z,2.10
2018-06-27T20:32:17.361Z,2.03
2018-06-27T20:34:49.283Z,2.17
2018-06-27T20:37:19.780Z,1.73
2018-06-27T20:39:49.106Z,1.70
2018-06-27T20:42:20.378Z,2.10
2018-06-27T20:44:50.975Z,1.70
2018-06-27T20:47:21.140Z,1.97
2018-06-27T20:49:50.181Z,2.53
2018-06-27T20:52:21.692Z,1.70
2018-06-27T20:54:51.949Z,1.80
2018-06-27T20:57:22.197Z,1.40
2018-06-27T20:59:52.218Z,2.00
2018-06-27T21:02:22.689Z,1.90
2018-06-27T21:04:52.980Z,1.70
2018-06-27T21:07:26.724Z,2.20
2018-06-27T21:09:57.283Z,1.97
2018-06-27T21:12:29.091Z,2.00
2018-06-27T21:14:58.565Z,1.77
2018-06-27T21:17:28.875Z,1.80
2018-06-27T21:19:58.941Z,2.20
2018-06-27T21:22:29.280Z,2.40
2018-06-27T21:24:58.425Z,2.00
2018-06-27T21:27:28.363Z,1.90
2018-06-27T21:29:58.376Z,2.00
2018-06-27T21:32:28.445Z,1.80
2018-06-27T21:34:57.795Z,2.10
2018-06-27T21:37:28.459Z,2.07
2018-06-27T21:39:58.504Z,1.70
2018-06-27T21:42:28.488Z,2.57
2018-06-27T21:44:56.974Z,2.07
2018-06-27T21:47:26.490Z,2.03
2018-06-27T21:49:56.421Z,1.83
2018-06-27T21:52:27.243Z,1.80
2018-06-27T21:54:57.815Z,1.80
2018-06-27T21:57:29.261Z,1.70
2018-06-27T21:59:58.794Z,1.90
2018-06-27T22:02:32.767Z,2.23
2018-06-27T22:05:02.944Z,2.70
2018-06-27T22:07:32.468Z,1.93
2018-06-27T22:10:03.324Z,2.00
2018-06-27T22:12:32.741Z,1.93
2018-06-27T22:15:03.188Z,2.20
2018-06-27T22:17:32.719Z,2.50
2018-06-27T22:20:02.313Z,2.50
2018-06-27T22:22:31.547Z,2.20
2018-06-27T22:25:01.387Z,1.87
2018-06-27T22:27:31.086Z,1.97
2018-06-27T22:30:00.768Z,1.73
2018-06-27T22:32:31.538Z,2.00
2018-06-27T22:35:01.497Z,2.27
2018-06-27T22:37:31.472Z,2.27
2018-06-27T22:40:01.076Z,2.03
2018-06-27T22:42:31.074Z,2.03
2018-06-27T22:45:02.012Z,2.50
2018-06-27T22:47:32.392Z,2.30
2018-06-27T22:59:43.199Z,2.83
2018-06-27T23:02:16.614Z,2.57
2018-06-27T23:04:45.411Z,3.10
2018-06-27T23:07:15.726Z,2.80
2018-06-27T23:09:44.738Z,3.30
2018-06-27T23:12:17.481Z,3.40
2018-06-27T23:14:50.903Z,3.70
2018-06-27T23:17:21.232Z,3.67
2018-06-27T23:19:52.724Z,3.63
2018-06-27T23:22:29.728Z,3.70
2018-06-27T23:27:59.152Z,3.67
2018-06-27T23:30:30.323Z,4.10
2018-06-27T23:33:02.371Z,3.90
2018-06-27T23:35:32.361Z,4.77
2018-06-27T23:38:02.754Z,4.30
2018-06-27T23:40:32.453Z,4.30
2018-06-27T23:43:02.133Z,5.17
2018-06-27T23:45:31.418Z,5.17
2018-06-27T23:48:00.264Z,4.77
2018-06-27T23:50:30.053Z,5.13
2018-06-27T23:52:59.421Z,4.70
2018-06-27T23:55:29.692Z,4.57
2018-06-27T23:57:59.077Z,5.03
